首页
METAR-TAF:

METAR-TAF

机场 :

拉斯海玛, 阿拉伯联合酋长国

纬度: 25-37N, 经度: 055-56E, 海拔: 31米

当前天气观测

该预报发布于55分钟前的00:00 UTC
风速2节,风向西转西南
温度 20°C
湿度 94%
气压 1017 hPa
能見度: 6000
散云层高于4000英尺
小雨

METAR: OMRK 080000Z 25002KT 6000 -RA SCT040 20/19 Q1016 A3002

时间: 04:55 (00:55 UTC)

预报

该预报发布于23分钟前的00:32 UTC
预报有效从08日的 00点(UTC)到 09日的 06点(UTC)
风速8节,风向
能見度: 8000
少量云层高于4000英尺
几率 30% :
短暂存在
从 08日的 00点(UTC)到 08日的 18点(UTC)
风速20节,风向多变,有时为35节阵风
能見度: 3000
少量云层高于4000英尺, 积雨云.
雷暴, 雨, 高吹尘
成为
从 08日的 08点(UTC)到 08日的 10点(UTC)
风速12节,风向
成为
从 08日的 13点(UTC)到 08日的 15点(UTC)
风速8节,风向

TAF: OMRK 080032Z 0800/0906 10008KT 8000 FEW040 PROB30 TEMPO 0800/0818 VRB20G35KT 3000 TSRA BLDU FEW040CB BECMG 0808/0810 35012KT BECMG 0813/0815 09008KT

超过4000个机场的气象观测和天气预报(METAR&TAF报告)。

可查询的气象台以黄色和红色小点在地图上表示。

将鼠标移到小点上方,可查看气象台名称。

然后点击查看天气观测和预报。

如需切换地图:点击带黑十字的绿色按钮放大地图;点击带横线的绿色按钮缩小地图;或者点击绿色箭头查看邻近地区的地图。


METAR-TAF: